Time;durP1;ratioP1;P1;durP2;ratioP2;P2;SDS_P1;SDS_P2;PMS_P1;PMS_P2;Temp;Humidity;BMP_temperature;BMP_pressure;BME280_temperature;BME280_humidity;BME280_pressure;Samples;Min_cycle;Max_cycle;Signal;HPM_P1;HPM_P2
2022/05/19 00:00:08;;;;;;;6.97;3.07;;;4.70;99.90;;;;;;4402232;28;656659;-65
2022/05/19 00:02:56;;;;;;;6.77;3.10;;;4.70;99.90;;;;;;4405502;28;656487;-65
2022/05/19 00:05:43;;;;;;;7.20;3.13;;;4.70;99.90;;;;;;4424002;28;658485;-64
2022/05/19 00:08:31;;;;;;;7.83;3.00;;;4.70;99.90;;;;;;4396340;28;657322;-65
2022/05/19 00:11:18;;;;;;;7.43;2.97;;;4.60;99.90;;;;;;4419573;28;657331;-65
2022/05/19 00:14:05;;;;;;;6.53;2.63;;;4.60;99.90;;;;;;4397169;28;656465;-64
2022/05/19 00:16:56;;;;;;;5.27;2.63;;;4.60;99.90;;;;;;4420285;28;657768;-65
2022/05/19 00:19:43;;;;;;;6.63;2.60;;;4.50;99.90;;;;;;4393508;28;657786;-65
2022/05/19 00:22:30;;;;;;;10.80;2.43;;;4.50;99.90;;;;;;4398487;28;656360;-65
2022/05/19 00:25:19;;;;;;;9.00;2.60;;;4.40;99.90;;;;;;4414648;28;659249;-64
2022/05/19 00:28:06;;;;;;;5.43;2.63;;;4.40;99.90;;;;;;4398168;28;656762;-65
2022/05/19 00:30:53;;;;;;;6.50;2.40;;;4.40;99.90;;;;;;4415475;28;657100;-65
2022/05/19 00:33:43;;;;;;;8.67;2.50;;;4.40;99.90;;;;;;4395248;28;656521;-65
2022/05/19 00:36:30;;;;;;;5.23;2.60;;;4.40;99.90;;;;;;4399838;28;656997;-65
2022/05/19 00:39:17;;;;;;;8.23;2.53;;;4.40;99.90;;;;;;4417757;28;657287;-65
2022/05/19 00:45:13;;;;;;;6.20;2.30;;;4.30;99.90;;;;;;4370882;28;656512;-65
2022/05/19 00:48:02;;;;;;;4.17;2.20;;;4.30;99.90;;;;;;4394827;28;656580;-65
2022/05/19 00:50:51;;;;;;;5.87;2.53;;;4.30;99.90;;;;;;4415770;28;656846;-65
2022/05/19 00:53:41;;;;;;;5.10;2.30;;;4.30;99.90;;;;;;4388846;28;657860;-65
2022/05/19 00:56:30;;;;;;;5.50;2.30;;;4.30;99.90;;;;;;4391268;28;657106;-65
2022/05/19 00:59:20;;;;;;;7.57;2.53;;;4.20;99.90;;;;;;4397895;28;656831;-65
2022/05/19 01:02:10;;;;;;;9.30;2.43;;;4.20;99.90;;;;;;4384428;28;657638;-65
2022/05/19 01:05:00;;;;;;;10.20;2.30;;;4.20;99.90;;;;;;4388347;28;657962;-65
2022/05/19 01:07:51;;;;;;;5.97;2.50;;;4.20;99.90;;;;;;4393530;28;658904;-65
2022/05/19 01:10:38;;;;;;;4.27;2.57;;;4.10;99.90;;;;;;4393579;28;656875;-65
2022/05/19 01:13:29;;;;;;;9.17;2.70;;;4.10;99.90;;;;;;4398366;28;656653;-65
2022/05/19 01:16:17;;;;;;;7.10;2.73;;;4.00;99.90;;;;;;4389472;28;656981;-65
2022/05/19 01:19:04;;;;;;;6.70;2.43;;;4.00;99.90;;;;;;4417234;28;656269;-64
2022/05/19 01:21:52;;;;;;;9.97;2.90;;;4.00;99.90;;;;;;4380720;28;656893;-64
2022/05/19 01:24:44;;;;;;;9.20;2.57;;;3.90;99.90;;;;;;4414591;28;656985;-65
2022/05/19 01:27:33;;;;;;;8.07;2.60;;;3.90;99.90;;;;;;4370454;28;656864;-65
2022/05/19 01:30:20;;;;;;;4.70;2.37;;;3.90;99.90;;;;;;4405574;28;656336;-65
2022/05/19 01:33:08;;;;;;;5.53;2.57;;;3.90;99.90;;;;;;4411036;28;658227;-65
2022/05/19 01:35:55;;;;;;;8.27;2.83;;;3.90;99.90;;;;;;4407900;28;656555;-65
2022/05/19 01:38:42;;;;;;;6.00;2.72;;;4.00;99.90;;;;;;4411306;28;657069;-65
2022/05/19 01:41:33;;;;;;;5.00;2.40;;;3.90;99.90;;;;;;4411112;28;656192;-65
2022/05/19 01:44:29;;;;;;;6.20;2.80;;;3.80;99.90;;;;;;4372433;28;657079;-64
2022/05/19 01:47:19;;;;;;;5.60;2.70;;;3.80;99.90;;;;;;4394736;28;657258;-64
2022/05/19 01:50:08;;;;;;;7.87;2.73;;;3.80;99.90;;;;;;4394080;28;657251;-65
2022/05/19 01:52:57;;;;;;;6.93;2.53;;;3.90;99.90;;;;;;4394967;28;656818;-65
2022/05/19 01:55:56;;;;;;;5.73;2.40;;;3.80;99.90;;;;;;4419197;28;656520;-65
2022/05/19 01:58:45;;;;;;;6.97;2.90;;;3.80;99.90;;;;;;4398264;28;657265;-65
2022/05/19 02:01:34;;;;;;;5.07;2.30;;;3.80;99.90;;;;;;4390442;28;657546;-65
2022/05/19 02:04:23;;;;;;;6.40;2.43;;;3.90;99.90;;;;;;4396497;28;657016;-64
2022/05/19 02:07:11;;;;;;;5.13;2.17;;;3.80;99.90;;;;;;4393098;28;656564;-64
2022/05/19 02:10:00;;;;;;;4.57;2.37;;;3.80;99.90;;;;;;4416359;28;657171;-65
2022/05/19 02:12:47;;;;;;;4.20;2.00;;;3.70;99.90;;;;;;4398219;28;657718;-64
2022/05/19 02:15:36;;;;;;;4.87;2.00;;;3.70;99.90;;;;;;4410386;28;656787;-64
2022/05/19 02:18:25;;;;;;;6.17;2.23;;;3.70;99.90;;;;;;4412633;28;656354;-65
2022/05/19 02:21:12;;;;;;;5.23;2.43;;;3.70;99.90;;;;;;4393820;28;656815;-65
2022/05/19 02:24:01;;;;;;;6.07;2.47;;;3.60;99.90;;;;;;4416976;28;656699;-64
2022/05/19 02:26:48;;;;;;;8.33;3.07;;;3.60;99.90;;;;;;4422663;28;656869;-65
2022/05/19 02:29:35;;;;;;;6.53;2.40;;;3.50;99.90;;;;;;4381551;28;656846;-65
2022/05/19 02:32:22;;;;;;;6.43;2.40;;;3.50;99.90;;;;;;4422237;28;657097;-64
2022/05/19 02:35:11;;;;;;;7.70;2.60;;;3.50;99.90;;;;;;4417959;28;656538;-65
2022/05/19 02:37:59;;;;;;;5.00;2.50;;;3.50;99.90;;;;;;4387091;28;657140;-65
2022/05/19 02:40:46;;;;;;;11.73;3.20;;;3.50;99.90;;;;;;4403479;28;656279;-64
2022/05/19 02:43:33;;;;;;;5.80;2.67;;;3.50;99.90;;;;;;4427640;28;658257;-64
2022/05/19 02:46:21;;;;;;;9.23;2.90;;;3.50;1.00;;;;;;4404550;28;656513;-64
2022/05/19 02:49:08;;;;;;;6.37;2.80;;;3.40;99.90;;;;;;4424982;28;656096;-64
2022/05/19 02:51:57;;;;;;;5.30;2.47;;;3.40;99.90;;;;;;4405863;28;657438;-64
2022/05/19 02:54:44;;;;;;;5.30;2.53;;;3.40;99.90;;;;;;4418713;28;657242;-64
2022/05/19 02:57:31;;;;;;;7.60;3.03;;;3.40;99.90;;;;;;4398285;28;656656;-64
2022/05/19 03:00:22;;;;;;;8.83;2.97;;;3.30;99.90;;;;;;4419645;28;657331;-64
2022/05/19 03:03:09;;;;;;;6.53;2.90;;;3.40;99.90;;;;;;4397124;28;657140;-64
2022/05/19 03:05:56;;;;;;;6.40;2.73;;;3.40;99.90;;;;;;4401848;28;656425;-64
2022/05/19 03:08:45;;;;;;;5.57;2.70;;;3.40;99.90;;;;;;4416666;28;657150;-64
2022/05/19 03:11:33;;;;;;;6.63;2.65;;;3.30;99.90;;;;;;4399481;28;656933;-64
2022/05/19 03:14:20;;;;;;;7.60;2.80;;;3.30;99.90;;;;;;4379815;28;656805;-64
2022/05/19 03:17:08;;;;;;;6.40;2.77;;;3.40;99.90;;;;;;4419741;28;658468;-64
2022/05/19 03:19:56;;;;;;;6.75;2.95;;;3.40;99.90;;;;;;4406665;28;656622;-64
2022/05/19 03:22:43;;;;;;;5.43;2.70;;;3.40;99.90;;;;;;4419536;28;657319;-64
2022/05/19 03:25:31;;;;;;;7.57;3.00;;;3.40;99.90;;;;;;4405386;28;657316;-64
2022/05/19 03:28:19;;;;;;;5.93;2.60;;;3.40;99.90;;;;;;4423766;28;657171;-64
2022/05/19 03:31:06;;;;;;;5.47;2.60;;;3.40;99.90;;;;;;4399599;28;656702;-63
2022/05/19 03:33:53;;;;;;;5.73;2.33;;;3.50;99.90;;;;;;4422402;28;658287;-64
2022/05/19 03:36:40;;;;;;;6.90;2.63;;;3.60;99.90;;;;;;4398919;28;656522;-64
2022/05/19 03:39:27;;;;;;;4.57;2.40;;;3.70;99.90;;;;;;4419509;28;658704;-64
2022/05/19 03:42:17;;;;;;;6.03;2.70;;;3.70;99.90;;;;;;4417071;28;657002;-64
2022/05/19 03:45:05;;;;;;;9.77;2.47;;;3.90;99.90;;;;;;4422094;28;656999;-64
2022/05/19 03:47:52;;;;;;;5.20;2.70;;;3.90;99.90;;;;;;4396126;28;657881;-64
2022/05/19 03:50:39;;;;;;;8.27;2.50;;;4.00;99.90;;;;;;4421362;28;656707;-64
2022/05/19 03:53:26;;;;;;;7.40;2.50;;;4.20;99.90;;;;;;4400922;28;656935;-64
2022/05/19 03:56:13;;;;;;;6.03;2.70;;;4.30;99.90;;;;;;4413314;28;657025;-64
2022/05/19 03:59:02;;;;;;;8.83;2.20;;;4.40;99.90;;;;;;4399396;28;657060;-64
2022/05/19 04:01:49;;;;;;;5.97;2.67;;;4.50;99.90;;;;;;4416094;28;657055;-64
2022/05/19 04:04:36;;;;;;;6.23;2.60;;;4.60;99.90;;;;;;4394423;28;656629;-64
2022/05/19 04:07:24;;;;;;;6.00;2.60;;;4.70;99.90;;;;;;4393661;28;656384;-64
2022/05/19 04:10:12;;;;;;;7.00;2.53;;;4.80;99.90;;;;;;4384021;28;656877;-64
2022/05/19 04:12:59;;;;;;;5.47;2.20;;;5.10;99.90;;;;;;4396384;28;657958;-64
2022/05/19 04:15:47;;;;;;;7.10;2.40;;;5.30;99.90;;;;;;4381964;28;657664;-64
2022/05/19 04:18:35;;;;;;;7.70;2.47;;;5.50;99.90;;;;;;4394278;28;656337;-64
2022/05/19 04:21:22;;;;;;;5.73;2.53;;;5.70;99.90;;;;;;4410771;28;656737;-64
2022/05/19 04:24:09;;;;;;;12.63;3.03;;;5.90;99.90;;;;;;4388156;28;656739;-64
2022/05/19 04:26:57;;;;;;;7.80;3.17;;;6.10;99.90;;;;;;4375455;28;657707;-64
2022/05/19 04:29:44;;;;;;;6.53;2.87;;;6.30;99.90;;;;;;4403863;28;657221;-64
2022/05/19 04:32:33;;;;;;;6.73;2.70;;;6.40;99.90;;;;;;4381623;28;657161;-64
2022/05/19 04:35:20;;;;;;;6.30;2.80;;;6.60;99.90;;;;;;4386038;28;657015;-64
2022/05/19 04:38:08;;;;;;;10.63;3.00;;;6.80;99.90;;;;;;4418272;28;657757;-65
2022/05/19 04:40:55;;;;;;;4.53;2.57;;;7.00;99.90;;;;;;4402810;28;657591;-64
2022/05/19 04:43:43;;;;;;;8.73;2.80;;;7.30;99.90;;;;;;4423996;28;657641;-64
2022/05/19 04:46:30;;;;;;;7.73;2.93;;;7.60;1.00;;;;;;4397964;28;656569;-64
2022/05/19 04:49:19;;;;;;;6.57;3.00;;;7.80;1.00;;;;;;4426205;28;655086;-64
2022/05/19 04:52:07;;;;;;;8.00;3.00;;;8.00;1.00;;;;;;4403329;28;656158;-64
2022/05/19 04:54:54;;;;;;;9.20;2.80;;;8.20;99.90;;;;;;4423810;28;657602;-64
2022/05/19 04:57:42;;;;;;;6.37;2.60;;;8.50;99.90;;;;;;4380248;28;656560;-65
2022/05/19 05:00:29;;;;;;;7.63;2.90;;;8.80;1.00;;;;;;4408196;28;657011;-64
2022/05/19 05:03:16;;;;;;;7.70;2.50;;;9.00;99.90;;;;;;4371970;28;654985;-64
2022/05/19 05:06:05;;;;;;;6.47;2.87;;;9.10;29.30;;;;;;4403366;28;657381;-64
2022/05/19 05:08:52;;;;;;;8.43;2.97;;;9.20;1.00;;;;;;4380365;28;657262;-64
2022/05/19 05:11:41;;;;;;;9.57;3.03;;;9.40;1.00;;;;;;4399574;28;655165;-64
2022/05/19 05:14:28;;;;;;;8.10;2.90;;;9.50;1.00;;;;;;4380621;28;656562;-65
2022/05/19 05:17:15;;;;;;;7.10;3.20;;;9.80;1.00;;;;;;4390372;28;655247;-64
2022/05/19 05:20:03;;;;;;;9.90;3.47;;;10.00;1.00;;;;;;4400331;28;656384;-64
2022/05/19 05:22:52;;;;;;;9.83;2.90;;;10.20;1.00;;;;;;4392176;28;656500;-65
2022/05/19 05:25:39;;;;;;;9.67;2.70;;;10.30;1.00;;;;;;4402967;28;656524;-64
2022/05/19 05:28:26;;;;;;;7.03;2.37;;;10.60;1.00;;;;;;4385284;28;656398;-65
2022/05/19 05:31:13;;;;;;;5.90;2.10;;;10.80;1.00;;;;;;4408080;28;657145;-65
2022/05/19 05:34:00;;;;;;;8.23;1.83;;;11.10;99.90;;;;;;4379282;28;656733;-64
2022/05/19 05:36:47;;;;;;;5.10;1.97;;;11.20;1.00;;;;;;4409699;28;658859;-64
2022/05/19 05:39:37;;;;;;;2.97;1.70;;;11.40;1.00;;;;;;4412277;28;657021;-64
2022/05/19 05:42:24;;;;;;;9.57;2.00;;;11.60;31.60;;;;;;4414122;28;658512;-64
2022/05/19 05:45:12;;;;;;;4.33;1.70;;;11.80;51.50;;;;;;4393500;28;658161;-65
2022/05/19 05:47:59;;;;;;;5.27;1.83;;;12.00;99.90;;;;;;4401833;28;658099;-65
2022/05/19 05:50:46;;;;;;;5.37;1.70;;;12.10;99.90;;;;;;4398707;28;659274;-65
2022/05/19 05:53:33;;;;;;;7.80;2.27;;;12.20;62.40;;;;;;4409549;28;659040;-65
2022/05/19 05:56:22;;;;;;;8.33;2.00;;;12.40;1.00;;;;;;4392459;28;658268;-65
2022/05/19 05:59:09;;;;;;;7.27;2.47;;;12.60;99.90;;;;;;4422362;28;657273;-65
2022/05/19 06:01:56;;;;;;;6.43;2.30;;;12.70;99.90;;;;;;4401260;28;658005;-65
2022/05/19 06:04:44;;;;;;;10.10;2.17;;;12.90;99.90;;;;;;4420264;28;658201;-65
2022/05/19 06:07:31;;;;;;;5.13;2.00;;;13.10;1.00;;;;;;4396800;28;658795;-65
2022/05/19 06:10:19;;;;;;;5.93;2.00;;;13.30;1.00;;;;;;4421847;28;658005;-65
2022/05/19 06:13:07;;;;;;;7.10;2.40;;;13.30;1.00;;;;;;4401381;28;656728;-65
2022/05/19 06:15:54;;;;;;;11.07;2.17;;;13.60;1.00;;;;;;4416535;28;656725;-65
2022/05/19 06:18:42;;;;;;;4.40;2.40;;;13.70;99.90;;;;;;4403689;28;658621;-65
2022/05/19 06:21:29;;;;;;;5.37;2.30;;;13.80;1.00;;;;;;4421507;28;658251;-65
2022/05/19 06:24:16;;;;;;;6.70;2.10;;;14.00;99.90;;;;;;4402939;28;656615;-64
2022/05/19 06:27:03;;;;;;;7.30;2.20;;;13.90;1.00;;;;;;4423678;28;658822;-64
2022/05/19 06:29:52;;;;;;;5.80;2.10;;;14.10;12.40;;;;;;4405619;28;656211;-64
2022/05/19 06:32:39;;;;;;;5.13;2.10;;;14.10;99.90;;;;;;4420027;28;658249;-65
2022/05/19 06:35:28;;;;;;;6.20;2.10;;;14.30;1.00;;;;;;4402656;28;657455;-65
2022/05/19 06:38:15;;;;;;;5.40;2.00;;;14.50;1.00;;;;;;4397303;28;657899;-64
2022/05/19 06:44:04;;;;;;;11.10;2.17;;;14.60;1.00;;;;;;4400427;28;656853;-64
2022/05/19 06:46:52;;;;;;;5.53;2.40;;;14.70;1.00;;;;;;4400762;28;658482;-65
2022/05/19 06:49:40;;;;;;;7.47;2.13;;;14.90;1.00;;;;;;4421122;28;657018;-64
2022/05/19 06:52:29;;;;;;;12.20;2.37;;;14.90;1.00;;;;;;4415825;28;657982;-65
2022/05/19 06:55:16;;;;;;;3.37;2.00;;;15.20;1.00;;;;;;4407647;28;658039;-65
2022/05/19 06:58:05;;;;;;;4.37;2.10;;;15.50;1.00;;;;;;4416896;28;657006;-65
2022/05/19 07:00:53;;;;;;;3.43;2.20;;;15.50;1.00;;;;;;4402396;28;657921;-65
2022/05/19 07:03:42;;;;;;;8.00;2.30;;;15.60;99.90;;;;;;4416043;28;656864;-65
2022/05/19 07:06:29;;;;;;;7.77;2.13;;;15.80;1.00;;;;;;4422814;28;657849;-65
2022/05/19 07:09:16;;;;;;;3.58;1.90;;;16.10;99.90;;;;;;4403753;28;657501;-65
2022/05/19 07:12:04;;;;;;;4.27;2.00;;;16.40;1.00;;;;;;4424917;28;658494;-66
2022/05/19 07:14:51;;;;;;;5.70;2.20;;;16.70;1.00;;;;;;4397331;28;656377;-65
2022/05/19 07:17:38;;;;;;;6.50;2.20;;;17.00;1.00;;;;;;4414567;28;657099;-65
2022/05/19 07:23:30;;;;;;;3.67;1.60;;;17.00;99.90;;;;;;4380208;28;657429;-65
2022/05/19 07:26:18;;;;;;;4.20;1.70;;;17.10;1.00;;;;;;4416626;28;659500;-65
2022/05/19 07:29:05;;;;;;;5.17;1.80;;;17.30;1.00;;;;;;4421601;28;656852;-65
2022/05/19 07:31:53;;;;;;;4.30;1.70;;;17.40;1.00;;;;;;4428803;28;656658;-65
2022/05/19 07:34:40;;;;;;;6.00;1.60;;;17.20;1.00;;;;;;4403156;28;656816;-65
2022/05/19 07:37:29;;;;;;;10.57;1.67;;;17.50;12.40;;;;;;4406741;28;657669;-65
2022/05/19 07:40:16;;;;;;;6.57;1.83;;;17.50;19.20;;;;;;4399679;28;659527;-65
2022/05/19 07:46:05;;;;;;;3.97;1.80;;;17.40;38.90;;;;;;4399208;28;657865;-65
2022/05/19 07:48:54;;;;;;;5.13;1.50;;;17.80;42.00;;;;;;4400825;28;658811;-65
2022/05/19 07:51:41;;;;;;;6.17;2.23;;;17.80;38.60;;;;;;4402156;28;657811;-65
2022/05/19 07:54:30;;;;;;;4.53;1.80;;;17.90;39.30;;;;;;4416585;28;658086;-65
2022/05/19 07:57:18;;;;;;;5.60;1.20;;;18.00;39.30;;;;;;4399981;28;658405;-64
2022/05/19 08:00:06;;;;;;;6.23;1.90;;;18.00;38.40;;;;;;4408125;28;657280;-65
2022/05/19 08:02:54;;;;;;;4.80;1.73;;;18.20;38.00;;;;;;4425160;28;658552;-65
2022/05/19 08:05:41;;;;;;;13.47;2.00;;;18.30;39.00;;;;;;4395692;28;657463;-65
2022/05/19 08:08:28;;;;;;;4.60;1.60;;;18.40;40.10;;;;;;4418115;28;659434;-65
2022/05/19 08:11:16;;;;;;;10.53;1.80;;;18.60;41.60;;;;;;4390376;28;657568;-65
2022/05/19 08:17:10;;;;;;;8.73;1.87;;;19.30;41.30;;;;;;4401636;28;657988;-64
2022/05/19 08:19:57;;;;;;;4.07;1.90;;;19.00;39.30;;;;;;4388608;28;659615;-64
2022/05/19 08:22:44;;;;;;;5.27;1.40;;;18.50;35.90;;;;;;4421619;28;658545;-65
2022/05/19 08:25:31;;;;;;;4.63;1.63;;;18.40;36.20;;;;;;4400310;28;657586;-64
2022/05/19 08:28:20;;;;;;;6.60;1.60;;;18.80;35.10;;;;;;4419053;28;658663;-65
2022/05/19 08:31:08;;;;;;;6.53;1.87;;;19.10;34.40;;;;;;4400804;28;658614;-65
2022/05/19 08:33:58;;;;;;;2.10;1.33;;;19.10;34.80;;;;;;4396809;28;657847;-65
2022/05/19 08:36:46;;;;;;;2.77;1.40;;;19.00;34.40;;;;;;4397802;28;658036;-64
2022/05/19 08:39:33;;;;;;;8.97;1.50;;;19.40;35.70;;;;;;4408446;28;658089;-65
2022/05/19 08:42:20;;;;;;;2.47;1.20;;;19.20;35.40;;;;;;4381997;28;658484;-65
2022/05/19 08:45:16;;;;;;;4.00;1.67;;;19.30;35.20;;;;;;4398271;28;658287;-65
2022/05/19 08:48:05;;;;;;;2.17;1.40;;;19.20;34.90;;;;;;4358109;28;658060;-64
2022/05/19 08:50:54;;;;;;;4.40;1.70;;;19.10;34.40;;;;;;4351163;28;658575;-65
2022/05/19 08:53:42;;;;;;;3.23;1.77;;;19.70;36.30;;;;;;4367760;28;657391;-65
2022/05/19 08:56:31;;;;;;;5.43;1.70;;;19.80;35.50;;;;;;4390464;28;657530;-65
2022/05/19 08:59:26;;;;;;;5.30;2.10;;;19.70;33.90;;;;;;4361321;28;658090;-65
2022/05/19 09:02:17;;;;;;;7.00;1.70;;;19.40;32.60;;;;;;4356531;28;658496;-66
2022/05/19 09:05:12;;;;;;;8.57;1.97;;;19.60;34.30;;;;;;4360333;28;657155;-65
2022/05/19 09:08:05;;;;;;;5.00;1.93;;;20.30;35.40;;;;;;4362623;28;657701;-65
2022/05/19 09:10:59;;;;;;;4.07;2.10;;;20.70;35.10;;;;;;4340582;28;657924;-65
2022/05/19 09:13:51;;;;;;;5.90;2.50;;;21.00;34.00;;;;;;4362591;28;657733;-64
2022/05/19 09:16:39;;;;;;;7.15;2.00;;;21.30;37.30;;;;;;4353779;28;659475;-65
2022/05/19 09:19:34;;;;;;;8.13;2.40;;;20.60;33.00;;;;;;4360856;28;657254;-65
2022/05/19 09:22:22;;;;;;;6.37;1.73;;;20.60;34.80;;;;;;4323449;28;658100;-65
2022/05/19 09:25:12;;;;;;;8.87;2.27;;;21.00;33.00;;;;;;4381037;28;658023;-65
2022/05/19 09:27:59;;;;;;;8.00;2.43;;;21.00;33.90;;;;;;4383321;28;657490;-66
2022/05/19 09:30:49;;;;;;;4.20;1.97;;;20.80;35.30;;;;;;4363522;28;657439;-65
2022/05/19 09:33:37;;;;;;;6.63;2.20;;;20.60;35.20;;;;;;4360800;28;657835;-65
2022/05/19 09:36:26;;;;;;;9.07;2.23;;;21.00;33.90;;;;;;4383575;28;658237;-65
2022/05/19 09:39:14;;;;;;;9.13;2.13;;;21.30;37.00;;;;;;4353989;28;658971;-65
2022/05/19 09:42:05;;;;;;;7.10;2.23;;;21.80;34.20;;;;;;4351481;28;658883;-65
2022/05/19 09:44:56;;;;;;;6.23;2.33;;;21.40;35.50;;;;;;4368750;28;658543;-65
2022/05/19 09:47:45;;;;;;;6.70;1.80;;;21.50;35.90;;;;;;4369366;28;658112;-65
2022/05/19 09:50:37;;;;;;;8.67;2.37;;;22.00;33.50;;;;;;4374642;28;658837;-65
2022/05/19 09:53:26;;;;;;;7.20;2.47;;;22.20;32.20;;;;;;4369001;28;657966;-66
2022/05/19 09:56:14;;;;;;;6.17;1.70;;;21.60;33.70;;;;;;4376782;28;659229;-65
2022/05/19 09:59:04;;;;;;;8.13;2.50;;;21.70;33.60;;;;;;4382712;28;657813;-65
2022/05/19 10:01:57;;;;;;;6.57;1.90;;;21.90;34.20;;;;;;4374472;28;658158;-65
2022/05/19 10:04:49;;;;;;;3.93;1.73;;;21.70;32.20;;;;;;4380036;28;658102;-65
2022/05/19 10:07:39;;;;;;;5.43;1.47;;;21.70;31.70;;;;;;4339126;28;658112;-65
2022/05/19 10:10:29;;;;;;;5.40;1.67;;;21.50;31.70;;;;;;4363399;28;658033;-65
2022/05/19 10:13:17;;;;;;;9.87;1.83;;;22.20;34.90;;;;;;4370351;28;657441;-66
2022/05/19 10:16:10;;;;;;;6.30;1.73;;;21.90;32.20;;;;;;4400685;28;657234;-65
2022/05/19 10:19:10;;;;;;;4.07;1.40;;;22.80;34.50;;;;;;4371509;28;658206;-65
2022/05/19 10:22:19;;;;;;;3.03;1.77;;;22.20;30.70;;;;;;4371592;28;658359;-65
2022/05/19 10:25:16;;;;;;;6.63;1.60;;;22.90;36.60;;;;;;4361388;28;659522;-65
2022/05/19 10:31:23;;;;;;;8.20;1.83;;;22.80;30.60;;;;;;4353169;28;657445;-65
2022/05/19 10:34:33;;;;;;;3.60;1.80;;;23.00;31.60;;;;;;4358881;28;658554;-65
2022/05/19 10:37:25;;;;;;;4.20;1.77;;;24.10;32.30;;;;;;4357039;28;657478;-66
2022/05/19 10:40:23;;;;;;;6.00;1.50;;;23.30;29.80;;;;;;4376815;28;659096;-65
2022/05/19 10:43:20;;;;;;;8.00;1.70;;;22.30;29.30;;;;;;4358563;28;657951;-65
2022/05/19 10:46:08;;;;;;;7.83;1.60;;;22.50;31.00;;;;;;4371134;28;657691;-65
2022/05/19 10:49:05;;;;;;;7.30;1.87;;;21.90;28.70;;;;;;4378532;28;657543;-65
2022/05/19 10:51:57;;;;;;;7.10;1.80;;;22.80;36.10;;;;;;4378641;28;657908;-65
2022/05/19 10:54:51;;;;;;;6.33;1.67;;;22.70;31.20;;;;;;4374151;28;657708;-65
2022/05/19 10:58:14;;;;;;;7.17;2.10;;;23.00;31.10;;;;;;4363616;28;658108;-65
2022/05/19 11:01:08;;;;;;;5.10;1.70;;;23.70;30.60;;;;;;4299084;28;658555;-65
2022/05/19 11:04:01;;;;;;;4.67;1.77;;;23.20;30.90;;;;;;4343301;28;658419;-65
2022/05/19 11:07:22;;;;;;;3.47;1.57;;;22.70;31.30;;;;;;4384914;28;658348;-66
2022/05/19 11:10:25;;;;;;;5.73;1.50;;;23.40;29.40;;;;;;4379782;28;657752;-65
2022/05/19 11:13:24;;;;;;;5.50;1.50;;;23.80;32.10;;;;;;4385327;28;657379;-65
2022/05/19 11:16:16;;;;;;;5.40;1.63;;;24.60;31.40;;;;;;4354669;28;657755;-65
2022/05/19 11:19:06;;;;;;;2.47;1.50;;;24.80;36.30;;;;;;4381169;28;658440;-65
2022/05/19 11:21:55;;;;;;;5.87;1.50;;;23.60;30.10;;;;;;4378017;28;657955;-65
2022/05/19 11:27:49;;;;;;;4.33;1.47;;;23.20;29.70;;;;;;4357698;28;659245;-65
2022/05/19 11:30:40;;;;;;;3.87;1.63;;;24.00;35.50;;;;;;4367372;28;657622;-65
2022/05/19 11:33:36;;;;;;;1.97;1.37;;;23.80;32.00;;;;;;4377114;28;658929;-65
2022/05/19 11:36:35;;;;;;;8.30;1.53;;;23.70;28.00;;;;;;4376287;28;658567;-66
2022/05/19 11:39:27;;;;;;;6.30;1.50;;;23.90;30.50;;;;;;4369718;28;657606;-66
2022/05/19 11:42:23;;;;;;;2.57;1.30;;;23.70;28.30;;;;;;4351978;28;658143;-65
2022/05/19 11:45:12;;;;;;;5.40;1.50;;;24.00;28.70;;;;;;4359173;28;657950;-66
2022/05/19 11:57:34;;;;;;;9.00;1.50;;;24.50;30.00;;;;;;4360773;28;658495;-65
2022/05/19 12:00:24;;;;;;;2.37;1.40;;;24.50;28.90;;;;;;4382196;28;657995;-66
2022/05/19 12:03:14;;;;;;;2.83;1.20;;;23.90;28.30;;;;;;4358556;28;657691;-66
2022/05/19 12:06:03;;;;;;;3.70;1.47;;;23.90;29.30;;;;;;4382117;28;657893;-66
2022/05/19 12:08:57;;;;;;;8.73;1.63;;;23.70;27.60;;;;;;4388746;28;657646;-65
2022/05/19 12:11:52;;;;;;;5.20;1.50;;;24.20;28.20;;;;;;4379280;28;658190;-66
2022/05/19 12:14:40;;;;;;;5.47;1.70;;;23.70;27.40;;;;;;4381097;28;659166;-66
2022/05/19 12:17:32;;;;;;;8.82;1.48;;;24.60;29.90;;;;;;4375989;28;659314;-65
2022/05/19 12:20:54;;;;;;;8.43;1.60;;;24.60;27.10;;;;;;4373530;28;658196;-65
2022/05/19 12:23:42;;;;;;;4.50;1.30;;;24.40;25.50;;;;;;4382759;28;657414;-66
2022/05/19 12:26:37;;;;;;;2.50;1.33;;;24.50;26.80;;;;;;4402266;28;657051;-66
2022/05/19 12:29:30;;;;;;;2.80;1.33;;;24.70;25.20;;;;;;4377361;28;658172;-66
2022/05/19 12:32:21;;;;;;;3.33;1.30;;;25.50;29.00;;;;;;4356101;28;658367;-66
2022/05/19 12:35:10;;;;;;;4.30;1.53;;;24.90;26.00;;;;;;4378058;28;658335;-65
2022/05/19 12:38:03;;;;;;;4.77;1.00;;;25.00;27.00;;;;;;4378318;28;658519;-65
2022/05/19 12:40:54;;;;;;;9.73;1.40;;;24.60;25.20;;;;;;4371768;28;657196;-65
2022/05/19 12:43:43;;;;;;;13.43;1.67;;;24.60;25.00;;;;;;4385902;28;657662;-65
2022/05/19 12:46:45;;;;;;;5.27;1.50;;;25.30;28.60;;;;;;4383047;28;659120;-65
2022/05/19 12:49:35;;;;;;;8.30;1.97;;;24.90;30.20;;;;;;4356683;28;658431;-65
2022/05/19 12:52:24;;;;;;;7.38;1.33;;;25.20;26.00;;;;;;4386101;28;658291;-66
2022/05/19 12:55:32;;;;;;;2.53;1.57;;;25.00;25.30;;;;;;4383675;28;658335;-66
2022/05/19 12:59:02;;;;;;;6.40;1.60;;;25.30;28.40;;;;;;4404992;28;657307;-66
2022/05/19 13:01:53;;;;;;;2.80;1.30;;;25.70;26.40;;;;;;4378606;28;658667;-66
2022/05/19 13:04:44;;;;;;;12.80;1.55;;;24.70;23.00;;;;;;4388832;28;657664;-66
2022/05/19 13:07:35;;;;;;;5.07;1.52;;;25.30;26.60;;;;;;4383486;28;658521;-66
2022/05/19 13:10:24;;;;;;;3.72;1.88;;;25.00;25.60;;;;;;4389054;28;657438;-66
2022/05/19 13:13:21;;;;;;;5.40;1.83;;;25.80;28.60;;;;;;4384549;28;658364;-65
2022/05/19 13:16:12;;;;;;;3.72;1.50;;;25.00;27.20;;;;;;4382106;28;658516;-66
2022/05/19 13:19:02;;;;;;;8.82;1.60;;;25.00;29.10;;;;;;4384219;28;657767;-65
2022/05/19 13:21:55;;;;;;;3.25;1.60;;;25.70;28.00;;;;;;4400254;28;657660;-66
2022/05/19 13:24:42;;;;;;;6.28;1.45;;;25.90;28.80;;;;;;4377869;28;658555;-66
2022/05/19 13:30:43;;;;;;;11.45;1.83;;;25.20;26.50;;;;;;4318756;28;659181;-65
2022/05/19 13:33:31;;;;;;;4.68;1.48;;;25.30;28.00;;;;;;4359868;28;658610;-65
2022/05/19 13:36:30;;;;;;;3.75;1.40;;;25.50;26.20;;;;;;4394788;28;658600;-65
2022/05/19 13:39:18;;;;;;;7.03;1.70;;;25.70;27.20;;;;;;4372036;28;658186;-65
2022/05/19 13:42:07;;;;;;;4.90;1.80;;;25.40;25.60;;;;;;4375823;28;657461;-66
2022/05/19 13:44:54;;;;;;;4.90;1.73;;;25.30;28.60;;;;;;4400958;28;657535;-66
2022/05/19 13:47:41;;;;;;;6.82;1.60;;;25.20;26.20;;;;;;4379459;28;657671;-65
2022/05/19 13:50:30;;;;;;;8.90;1.48;;;24.90;27.20;;;;;;4395259;28;657878;-65
2022/05/19 13:53:18;;;;;;;6.80;1.70;;;24.40;26.70;;;;;;4370811;28;658189;-65
2022/05/19 13:56:06;;;;;;;2.70;1.27;;;24.60;26.80;;;;;;4378255;28;658770;-66
2022/05/19 13:58:54;;;;;;;6.60;1.60;;;24.80;26.00;;;;;;4400964;28;658152;-66
2022/05/19 14:01:43;;;;;;;4.63;1.40;;;25.70;30.00;;;;;;4380375;28;657570;-66
2022/05/19 14:04:30;;;;;;;5.75;1.63;;;24.90;25.10;;;;;;4379015;28;657461;-66
2022/05/19 14:07:18;;;;;;;10.73;1.75;;;25.70;26.00;;;;;;4395587;28;658855;-66
2022/05/19 14:10:09;;;;;;;2.67;1.50;;;25.80;27.60;;;;;;4385809;28;658903;-65
2022/05/19 14:12:57;;;;;;;2.58;1.40;;;26.40;26.70;;;;;;4373682;28;657271;-65
2022/05/19 14:15:47;;;;;;;4.40;1.48;;;25.90;26.70;;;;;;4388047;28;658325;-65
2022/05/19 14:18:35;;;;;;;5.43;1.50;;;25.60;27.30;;;;;;4367228;28;658047;-65
2022/05/19 14:21:23;;;;;;;8.90;1.73;;;25.80;27.70;;;;;;4376368;28;658051;-65
2022/05/19 14:24:11;;;;;;;3.88;1.55;;;26.30;27.30;;;;;;4377556;28;657464;-67
2022/05/19 14:27:00;;;;;;;4.65;1.70;;;25.60;26.40;;;;;;4389892;28;658950;-65
2022/05/19 14:29:47;;;;;;;6.22;1.63;;;25.50;25.20;;;;;;4365586;28;658700;-65
2022/05/19 14:32:52;;;;;;;4.95;1.65;;;25.80;26.30;;;;;;4389896;28;657736;-65
2022/05/19 14:35:47;;;;;;;3.72;1.80;;;25.60;26.40;;;;;;4365321;28;658155;-66
2022/05/19 14:38:36;;;;;;;3.95;1.55;;;25.30;25.80;;;;;;4394999;28;657243;-66
2022/05/19 14:44:33;;;;;;;6.43;1.40;;;25.80;26.50;;;;;;4396386;28;657804;-66
2022/05/19 14:47:21;;;;;;;10.48;1.90;;;25.30;26.50;;;;;;4380386;28;657572;-66
2022/05/19 14:50:10;;;;;;;7.47;1.80;;;25.80;27.00;;;;;;4402746;28;658911;-65
2022/05/19 14:52:59;;;;;;;8.40;1.80;;;26.10;26.60;;;;;;4382427;28;658408;-66
2022/05/19 14:55:53;;;;;;;7.78;1.80;;;26.40;29.00;;;;;;4381205;28;657349;-66
2022/05/19 14:58:46;;;;;;;12.52;1.42;;;26.00;27.50;;;;;;4381921;28;657759;-66
2022/05/19 15:01:34;;;;;;;6.15;1.42;;;26.80;28.40;;;;;;4378049;28;660147;-66
2022/05/19 15:04:21;;;;;;;8.80;1.80;;;26.70;28.40;;;;;;4381024;28;657971;-66
2022/05/19 15:07:10;;;;;;;2.88;1.25;;;26.20;27.30;;;;;;4401185;28;657784;-66
2022/05/19 15:09:57;;;;;;;7.15;1.80;;;25.70;28.10;;;;;;4381307;28;658552;-66
2022/05/19 15:12:44;;;;;;;3.17;1.30;;;26.40;26.80;;;;;;4401430;28;657849;-67